This is the latest recevied weather packets stored in our database for station/object WC4PEM-8. If no packets are shown the sender has not sent any weather packets the latest 10 day(s).
| Time | Temp. | Humidity | Pressure | Rain* | Wind** | Luminosity | Snow |
|---|---|---|---|---|---|---|---|
| 1777750565 | 24.44° C | 77% | 1013.2 hPa | 0 mm | - | - | - |
| 1777750429 | 27.22° C | 79% | 1010.8 hPa | 0 mm | - | - | - |
| 1777750265 | 26.67° C | 72% | 1012.5 hPa | 0 mm | - | - | - |
| 1777749965 | 27.22° C | 81% | 1011.1 hPa | 0 mm | - | - | - |
| 1777749665 | 27.22° C | 79% | 1010.8 hPa | 0 mm | - | - | - |
| 1777749365 | 27.22° C | 78% | 1010.5 hPa | 0 mm | - | - | - |
| 1777749065 | 27.22° C | 78% | 1010.5 hPa | 0 mm | - | - | - |
| 1777748765 | 27.78° C | 78% | 1010.6 hPa | 0 mm | - | - | - |
| 1777748465 | 27.22° C | 78% | 1010.7 hPa | 0 mm | - | - | - |
| 1777748190 | 27.78° C | 77% | 1011 hPa | 0 mm | - | - | - |
| 1777748165 | 27.22° C | 78% | 1010.8 hPa | 0 mm | - | - | - |
| 1777747865 | 27.78° C | 77% | 1011 hPa | 0 mm | - | - | - |
| 1777747566 | 27.78° C | 77% | 1011 hPa | 0 mm | - | - | - |
| 1777747265 | 27.78° C | 77% | 1010.9 hPa | 0 mm | - | - | - |
| 1777746966 | 27.78° C | 77% | 1010.8 hPa | 0 mm | - | - | - |
| 1777746806 | 27.78° C | 76% | 1010.8 hPa | 0 mm | - | - | - |
| 1777746666 | 27.78° C | 76% | 1010.8 hPa | 0 mm | - | - | - |
| 1777746366 | 27.78° C | 76% | 1010.8 hPa | 0 mm | - | - | - |
| 1777746269 | 28.33° C | 75% | 1011 hPa | 0 mm | - | - | - |
| 1777746256 | 27.78° C | 76% | 1010.9 hPa | 0 mm | - | - | - |
| 1777746066 | 27.78° C | 76% | 1010.9 hPa | 0 mm | - | - | - |
| 1777745766 | 28.33° C | 75% | 1011 hPa | 0 mm | - | - | - |
| 1777745738 | 28.33° C | 74% | 1010.9 hPa | 0 mm | - | - | - |
| 1777745621 | 28.33° C | 74% | 1010.9 hPa | 0 mm | - | - | - |
| 1777745466 | 28.33° C | 74% | 1010.9 hPa | 0 mm | - | - | - |
* Rain latest hour (hover to see other rain measurements)
** Current wind speed in m/s (hover to see current wind gust speed)